Time;durP1;ratioP1;P1;durP2;ratioP2;P2;SDS_P1;SDS_P2;PMS_P1;PMS_P2;Temp;Humidity;BMP_temperature;BMP_pressure;BME280_temperature;BME280_humidity;BME280_pressure;Samples;Min_cycle;Max_cycle;Signal;HPM_P1;HPM_P2
2022/05/02 00:00:42;;;;;;;30.95;6.70;;;;;;;;;;5034870;28;20471;-46
2022/05/02 00:03:10;;;;;;;25.42;6.10;;;;;;;;;;5034301;28;20049;-45
2022/05/02 00:05:37;;;;;;;25.15;5.82;;;;;;;;;;5034622;28;20064;-45
2022/05/02 00:08:04;;;;;;;26.05;6.10;;;;;;;;;;5039887;28;20065;-43
2022/05/02 00:10:32;;;;;;;23.48;5.53;;;;;;;;;;5034456;28;20434;-44
2022/05/02 00:12:58;;;;;;;25.90;6.40;;;;;;;;;;5034585;28;20116;-45
2022/05/02 00:15:25;;;;;;;21.48;5.88;;;;;;;;;;5035796;28;20041;-43
2022/05/02 00:17:59;;;;;;;26.00;6.50;;;;;;;;;;5045562;28;20162;-44
2022/05/02 00:20:26;;;;;;;23.55;6.95;;;;;;;;;;5054478;28;20112;-43
2022/05/02 00:22:53;;;;;;;18.45;6.07;;;;;;;;;;5054116;28;20391;-43
2022/05/02 00:25:20;;;;;;;24.38;5.75;;;;;;;;;;5053823;28;20056;-43
2022/05/02 00:27:47;;;;;;;31.08;6.43;;;;;;;;;;5044970;28;20035;-46
2022/05/02 00:30:15;;;;;;;29.40;5.78;;;;;;;;;;5033988;28;20421;-44
2022/05/02 00:32:42;;;;;;;25.13;5.38;;;;;;;;;;5015093;28;20113;-49
2022/05/02 00:35:10;;;;;;;22.05;5.45;;;;;;;;;;5027977;28;20466;-50
2022/05/02 00:37:39;;;;;;;25.27;5.63;;;;;;;;;;5033164;28;20065;-45
2022/05/02 00:40:07;;;;;;;26.27;5.05;;;;;;;;;;5033468;28;20037;-45
2022/05/02 00:42:35;;;;;;;21.55;5.78;;;;;;;;;;5032754;28;20470;-49
2022/05/02 00:45:05;;;;;;;27.25;5.35;;;;;;;;;;5031945;28;20045;-48
2022/05/02 00:47:32;;;;;;;36.97;6.05;;;;;;;;;;5032620;28;20049;-51
2022/05/02 00:49:59;;;;;;;23.92;5.40;;;;;;;;;;5031726;28;20029;-47
2022/05/02 00:52:26;;;;;;;22.38;5.47;;;;;;;;;;5041050;28;20017;-44
2022/05/02 00:54:53;;;;;;;20.13;5.32;;;;;;;;;;5042432;28;20474;-47
2022/05/02 00:57:20;;;;;;;27.27;4.70;;;;;;;;;;5041001;28;20768;-44
2022/05/02 00:59:47;;;;;;;21.88;5.20;;;;;;;;;;5042806;28;20021;-44
2022/05/02 01:02:15;;;;;;;22.25;6.50;;;;;;;;;;5043044;28;20049;-46
2022/05/02 01:04:43;;;;;;;23.95;4.95;;;;;;;;;;5038812;28;20045;-46
2022/05/02 01:07:18;;;;;;;21.38;5.85;;;;;;;;;;5043546;28;20029;-44
2022/05/02 01:09:47;;;;;;;24.25;5.18;;;;;;;;;;5040271;28;20037;-44
2022/05/02 01:12:17;;;;;;;20.30;5.28;;;;;;;;;;5042390;28;20363;-44
2022/05/02 01:14:46;;;;;;;19.95;4.75;;;;;;;;;;5039829;28;20029;-45
2022/05/02 01:17:13;;;;;;;17.55;5.03;;;;;;;;;;5050073;28;20044;-45
2022/05/02 01:19:40;;;;;;;17.63;4.47;;;;;;;;;;5052493;28;20025;-47
2022/05/02 01:22:08;;;;;;;23.02;4.85;;;;;;;;;;5053306;28;20501;-45
2022/05/02 01:24:35;;;;;;;15.02;5.15;;;;;;;;;;5052806;28;20043;-47
2022/05/02 01:27:04;;;;;;;19.92;4.90;;;;;;;;;;5052635;28;20375;-46
2022/05/02 01:29:32;;;;;;;16.73;4.00;;;;;;;;;;5053130;28;20486;-47
2022/05/02 01:32:00;;;;;;;13.20;5.30;;;;;;;;;;5052622;28;20057;-49
2022/05/02 01:34:29;;;;;;;19.52;4.53;;;;;;;;;;5052976;28;20106;-47
2022/05/02 01:36:57;;;;;;;17.60;4.57;;;;;;;;;;5053104;28;20021;-48
2022/05/02 01:39:24;;;;;;;16.58;5.05;;;;;;;;;;5052156;28;20033;-48
2022/05/02 01:41:52;;;;;;;20.85;5.07;;;;;;;;;;5053056;28;20398;-46
2022/05/02 01:44:19;;;;;;;18.25;3.97;;;;;;;;;;5053535;28;20040;-45
2022/05/02 01:46:47;;;;;;;18.85;4.70;;;;;;;;;;5053449;28;20058;-44
2022/05/02 01:49:14;;;;;;;20.77;5.80;;;;;;;;;;5018731;28;20441;-45
2022/05/02 01:51:42;;;;;;;25.23;4.78;;;;;;;;;;5053184;28;20128;-46
2022/05/02 01:54:10;;;;;;;24.10;6.20;;;;;;;;;;5025947;28;20127;-46
2022/05/02 01:56:37;;;;;;;15.65;4.18;;;;;;;;;;5030955;28;20376;-47
2022/05/02 01:59:05;;;;;;;15.20;4.55;;;;;;;;;;5021134;28;20030;-49
2022/05/02 02:01:37;;;;;;;19.33;4.57;;;;;;;;;;5021130;28;20458;-47
2022/05/02 02:06:51;;;;;;;18.17;4.93;;;;;;;;;;5022722;28;20116;-45
2022/05/02 02:09:19;;;;;;;14.43;4.75;;;;;;;;;;5021183;28;20032;-45
2022/05/02 02:11:46;;;;;;;16.13;4.50;;;;;;;;;;5031255;28;20483;-46
2022/05/02 02:14:14;;;;;;;15.82;5.10;;;;;;;;;;5032547;28;20498;-46
2022/05/02 02:16:42;;;;;;;16.65;4.35;;;;;;;;;;5033071;28;20029;-45
2022/05/02 02:19:09;;;;;;;14.88;4.45;;;;;;;;;;5032670;28;20029;-45
2022/05/02 02:21:37;;;;;;;18.80;5.07;;;;;;;;;;5032777;28;20029;-45
2022/05/02 02:24:05;;;;;;;16.08;3.72;;;;;;;;;;5032685;28;20022;-48
2022/05/02 02:26:32;;;;;;;18.50;3.97;;;;;;;;;;5033121;28;20057;-45
2022/05/02 02:29:00;;;;;;;12.25;4.28;;;;;;;;;;5032373;28;20450;-47
2022/05/02 02:31:28;;;;;;;12.50;3.47;;;;;;;;;;5032582;28;20032;-46
2022/05/02 02:33:55;;;;;;;14.07;4.15;;;;;;;;;;5032712;28;20083;-48
2022/05/02 02:36:23;;;;;;;17.58;3.90;;;;;;;;;;5032717;28;20037;-49
2022/05/02 02:38:49;;;;;;;8.35;3.60;;;;;;;;;;5032618;28;20368;-51
2022/05/02 02:41:16;;;;;;;11.10;4.10;;;;;;;;;;5032832;28;20021;-47
2022/05/02 02:43:43;;;;;;;12.40;3.40;;;;;;;;;;5032649;28;20394;-46
2022/05/02 02:46:10;;;;;;;13.43;3.40;;;;;;;;;;5032505;28;20037;-48
2022/05/02 02:48:37;;;;;;;22.30;4.32;;;;;;;;;;5032834;28;20026;-50
2022/05/02 02:51:04;;;;;;;10.82;3.85;;;;;;;;;;5032571;28;20503;-45
2022/05/02 02:53:31;;;;;;;8.52;3.55;;;;;;;;;;5032728;28;20109;-46
2022/05/02 02:55:58;;;;;;;13.50;3.58;;;;;;;;;;5032635;28;20037;-49
2022/05/02 02:58:25;;;;;;;13.40;3.67;;;;;;;;;;5032631;28;20032;-48
2022/05/02 03:00:53;;;;;;;12.57;3.40;;;;;;;;;;5032586;28;20040;-45
2022/05/02 03:03:20;;;;;;;6.50;2.83;;;;;;;;;;5032477;28;20402;-48
2022/05/02 03:06:02;;;;;;;10.73;3.28;;;;;;;;;;5032475;28;20041;-48
2022/05/02 03:08:29;;;;;;;10.40;3.47;;;;;;;;;;5032670;28;20048;-49
2022/05/02 03:10:57;;;;;;;11.70;3.47;;;;;;;;;;5032396;28;20049;-48
2022/05/02 03:13:24;;;;;;;8.02;3.00;;;;;;;;;;5031956;28;20042;-46
2022/05/02 03:15:51;;;;;;;10.20;2.95;;;;;;;;;;5032438;28;20029;-45
2022/05/02 03:18:18;;;;;;;8.25;2.67;;;;;;;;;;5032491;28;20032;-45
2022/05/02 03:20:45;;;;;;;9.95;3.35;;;;;;;;;;5030994;28;20075;-45
2022/05/02 03:23:12;;;;;;;9.82;2.78;;;;;;;;;;5032400;28;20387;-48
2022/05/02 03:25:39;;;;;;;7.75;2.90;;;;;;;;;;5032312;28;20037;-47
2022/05/02 03:28:07;;;;;;;9.93;3.55;;;;;;;;;;5032377;28;20052;-50
2022/05/02 03:30:33;;;;;;;10.10;3.28;;;;;;;;;;5033617;28;20021;-47
2022/05/02 03:33:01;;;;;;;8.70;3.13;;;;;;;;;;5036472;28;20071;-48
2022/05/02 03:35:28;;;;;;;6.63;3.17;;;;;;;;;;5036324;28;20040;-45
2022/05/02 03:37:55;;;;;;;8.15;3.00;;;;;;;;;;5036277;28;20096;-46
2022/05/02 03:40:23;;;;;;;12.27;3.20;;;;;;;;;;5036204;28;20028;-49
2022/05/02 03:42:49;;;;;;;9.55;2.90;;;;;;;;;;5036285;28;20033;-48
2022/05/02 03:45:17;;;;;;;6.70;2.75;;;;;;;;;;5036171;28;20095;-50
2022/05/02 03:47:43;;;;;;;11.18;3.65;;;;;;;;;;5036030;28;20446;-45
2022/05/02 03:50:10;;;;;;;8.43;2.50;;;;;;;;;;5035966;28;20538;-50
2022/05/02 03:52:37;;;;;;;7.15;2.80;;;;;;;;;;5035929;28;20026;-45
2022/05/02 03:55:04;;;;;;;7.57;3.38;;;;;;;;;;5035960;28;20029;-47
2022/05/02 03:57:31;;;;;;;6.80;3.03;;;;;;;;;;5035832;28;20022;-44
2022/05/02 03:59:58;;;;;;;10.50;2.70;;;;;;;;;;5035850;28;20475;-47
2022/05/02 04:02:25;;;;;;;6.55;2.92;;;;;;;;;;5035660;28;20057;-51
2022/05/02 04:04:52;;;;;;;5.13;2.58;;;;;;;;;;5035715;28;20073;-44
2022/05/02 04:07:19;;;;;;;8.98;3.00;;;;;;;;;;5034475;28;20060;-47
2022/05/02 04:09:46;;;;;;;6.38;2.70;;;;;;;;;;5035791;28;20029;-46
2022/05/02 04:12:13;;;;;;;6.78;2.30;;;;;;;;;;5035720;28;20441;-48
2022/05/02 04:14:40;;;;;;;10.15;3.13;;;;;;;;;;5035570;28;20061;-46
2022/05/02 04:17:07;;;;;;;5.97;2.50;;;;;;;;;;5035611;28;20022;-46
2022/05/02 04:19:34;;;;;;;6.72;2.83;;;;;;;;;;5035628;28;20412;-44
2022/05/02 04:22:01;;;;;;;9.38;2.95;;;;;;;;;;5035464;28;20021;-48
2022/05/02 04:24:28;;;;;;;6.35;2.40;;;;;;;;;;5035467;28;20140;-46
2022/05/02 04:26:57;;;;;;;10.63;3.13;;;;;;;;;;5035337;28;20029;-46
2022/05/02 04:29:25;;;;;;;4.57;2.22;;;;;;;;;;5035185;28;20036;-47
2022/05/02 04:31:52;;;;;;;5.53;2.53;;;;;;;;;;5035297;28;20083;-44
2022/05/02 04:34:19;;;;;;;6.88;2.60;;;;;;;;;;5035276;28;20030;-46
2022/05/02 04:36:46;;;;;;;5.38;2.55;;;;;;;;;;5035307;28;20494;-48
2022/05/02 04:39:13;;;;;;;5.13;2.25;;;;;;;;;;5035142;28;20038;-45
2022/05/02 04:41:40;;;;;;;6.03;2.65;;;;;;;;;;5034989;28;20025;-46
2022/05/02 04:44:07;;;;;;;3.90;2.05;;;;;;;;;;5034955;28;20032;-47
2022/05/02 04:46:34;;;;;;;5.43;2.50;;;;;;;;;;5035137;28;20026;-48
2022/05/02 04:49:01;;;;;;;8.40;2.30;;;;;;;;;;5035104;28;20033;-48
2022/05/02 04:51:28;;;;;;;4.35;2.15;;;;;;;;;;5034885;28;20360;-47
2022/05/02 04:53:55;;;;;;;7.40;2.65;;;;;;;;;;5034858;28;20030;-45
2022/05/02 04:56:22;;;;;;;6.45;1.90;;;;;;;;;;5034906;28;20475;-45
2022/05/02 04:58:49;;;;;;;4.93;2.55;;;;;;;;;;5034756;28;20474;-46
2022/05/02 05:01:16;;;;;;;6.03;2.20;;;;;;;;;;5034503;28;20032;-47
2022/05/02 05:03:43;;;;;;;6.00;2.97;;;;;;;;;;5034633;28;20022;-47
2022/05/02 05:06:10;;;;;;;3.90;2.30;;;;;;;;;;5034634;28;20112;-48
2022/05/02 05:08:37;;;;;;;5.13;2.47;;;;;;;;;;5034830;28;20040;-49
2022/05/02 05:11:04;;;;;;;3.63;2.05;;;;;;;;;;5034539;28;20033;-46
2022/05/02 05:13:39;;;;;;;3.65;2.20;;;;;;;;;;5034529;28;20365;-45
2022/05/02 05:16:39;;;;;;;4.85;1.95;;;;;;;;;;5034543;28;20033;-48
2022/05/02 05:19:21;;;;;;;5.25;2.15;;;;;;;;;;4991318;28;20173;-45
2022/05/02 05:21:58;;;;;;;5.50;2.20;;;;;;;;;;5034359;28;20102;-46
2022/05/02 05:24:25;;;;;;;5.18;2.60;;;;;;;;;;5034251;28;20136;-49
2022/05/02 05:27:14;;;;;;;6.25;2.20;;;;;;;;;;5034395;28;20441;-48
2022/05/02 05:29:58;;;;;;;4.65;2.03;;;;;;;;;;5034400;28;20026;-45
2022/05/02 05:32:25;;;;;;;5.82;2.83;;;;;;;;;;5034100;28;20026;-46
2022/05/02 05:35:04;;;;;;;5.72;2.47;;;;;;;;;;5034231;28;20080;-48
2022/05/02 05:37:34;;;;;;;3.80;1.98;;;;;;;;;;5033994;28;20038;-49
2022/05/02 05:40:10;;;;;;;3.15;1.75;;;;;;;;;;5034207;28;20529;-46
2022/05/02 05:42:45;;;;;;;4.88;1.88;;;;;;;;;;5034022;28;20084;-47
2022/05/02 05:45:12;;;;;;;4.03;1.67;;;;;;;;;;5033756;28;20422;-47
2022/05/02 05:47:45;;;;;;;4.00;1.88;;;;;;;;;;5033882;28;20021;-46
2022/05/02 05:50:15;;;;;;;4.85;2.05;;;;;;;;;;5033749;28;20108;-47
2022/05/02 05:52:47;;;;;;;2.58;1.70;;;;;;;;;;5033408;28;20029;-44
2022/05/02 05:55:22;;;;;;;2.78;1.67;;;;;;;;;;5034056;28;20379;-47
2022/05/02 05:57:52;;;;;;;5.07;1.77;;;;;;;;;;5033784;28;20028;-47
2022/05/02 06:00:19;;;;;;;4.35;1.48;;;;;;;;;;5033611;28;20065;-47
2022/05/02 06:03:04;;;;;;;5.15;1.90;;;;;;;;;;5033470;28;20077;-45
2022/05/02 06:05:33;;;;;;;6.32;2.10;;;;;;;;;;5033495;28;20490;-51
2022/05/02 06:08:03;;;;;;;2.35;1.58;;;;;;;;;;5033466;28;20030;-46
2022/05/02 06:10:31;;;;;;;4.55;1.75;;;;;;;;;;5033386;28;20036;-45
2022/05/02 06:12:58;;;;;;;4.32;1.75;;;;;;;;;;5033372;28;20101;-45
2022/05/02 06:18:28;;;;;;;4.70;1.67;;;;;;;;;;5033659;28;20047;-45
2022/05/02 06:20:56;;;;;;;3.45;1.70;;;;;;;;;;5033287;28;20025;-46
2022/05/02 06:23:25;;;;;;;4.32;1.48;;;;;;;;;;5033267;28;20022;-46
2022/05/02 06:25:55;;;;;;;3.75;1.90;;;;;;;;;;5033107;28;20079;-46
2022/05/02 06:28:33;;;;;;;4.47;1.85;;;;;;;;;;5033082;28;20513;-48
2022/05/02 06:31:08;;;;;;;2.92;1.58;;;;;;;;;;5134998;22;20022;31
2022/05/02 06:33:35;;;;;;;3.95;1.50;;;;;;;;;;4987232;28;19925;-60
2022/05/02 06:36:21;;;;;;;2.50;1.73;;;;;;;;;;4993814;28;20037;-54
2022/05/02 06:39:01;;;;;;;2.25;1.50;;;;;;;;;;4993780;28;20036;-59
2022/05/02 06:41:33;;;;;;;2.85;1.25;;;;;;;;;;4993598;28;20026;-59
2022/05/02 06:44:00;;;;;;;3.55;1.80;;;;;;;;;;4993646;28;20034;-59
2022/05/02 06:46:29;;;;;;;2.33;1.35;;;;;;;;;;4993537;28;20027;-57
2022/05/02 06:48:57;;;;;;;2.95;1.45;;;;;;;;;;4976138;28;20027;-59
2022/05/02 06:51:29;;;;;;;2.78;1.63;;;;;;;;;;4993414;28;20026;-59
2022/05/02 06:53:58;;;;;;;3.80;1.90;;;;;;;;;;4993443;28;20034;-59
2022/05/02 06:56:37;;;;;;;2.72;1.55;;;;;;;;;;4993505;28;20109;-60
2022/05/02 06:59:08;;;;;;;2.33;1.35;;;;;;;;;;4993341;28;20038;-59
2022/05/02 07:01:44;;;;;;;2.28;1.45;;;;;;;;;;4993341;28;20052;-58
2022/05/02 07:04:24;;;;;;;2.33;1.50;;;;;;;;;;4992918;28;20105;-59
2022/05/02 07:06:54;;;;;;;2.03;1.30;;;;;;;;;;4993023;28;20038;-59
2022/05/02 07:09:40;;;;;;;4.15;1.52;;;;;;;;;;4993276;28;20106;-59
2022/05/02 07:12:15;;;;;;;2.60;1.58;;;;;;;;;;4993064;28;20030;-59
2022/05/02 07:14:51;;;;;;;3.00;1.40;;;;;;;;;;4993223;28;20061;-57
2022/05/02 07:17:24;;;;;;;3.78;1.25;;;;;;;;;;4993199;28;20031;-59
2022/05/02 07:20:11;;;;;;;3.25;1.60;;;;;;;;;;4975676;28;20057;-59
2022/05/02 07:22:45;;;;;;;3.85;1.50;;;;;;;;;;4980054;28;20134;-59
2022/05/02 07:25:13;;;;;;;3.58;1.52;;;;;;;;;;4993058;28;20085;-59
2022/05/02 07:27:58;;;;;;;3.80;1.30;;;;;;;;;;4993135;28;20443;-59
2022/05/02 07:30:25;;;;;;;3.33;1.73;;;;;;;;;;4993013;28;20408;-57
2022/05/02 07:32:56;;;;;;;3.40;1.20;;;;;;;;;;5006680;28;20053;-56
2022/05/02 07:35:24;;;;;;;2.40;1.38;;;;;;;;;;5012686;28;20040;-58
2022/05/02 07:37:51;;;;;;;3.85;1.27;;;;;;;;;;5012514;28;20029;-58
2022/05/02 07:40:19;;;;;;;4.90;1.88;;;;;;;;;;5012563;28;20041;-59
2022/05/02 07:42:46;;;;;;;2.22;1.33;;;;;;;;;;5012449;28;20053;-57
2022/05/02 07:45:17;;;;;;;2.63;1.27;;;;;;;;;;5012498;28;20495;-59
2022/05/02 07:47:44;;;;;;;2.22;1.38;;;;;;;;;;5012472;28;20087;-59
2022/05/02 07:50:12;;;;;;;2.30;1.60;;;;;;;;;;5012534;28;20033;-59
2022/05/02 07:52:40;;;;;;;3.15;1.52;;;;;;;;;;5012411;28;20026;-59
2022/05/02 07:55:09;;;;;;;2.83;1.20;;;;;;;;;;5012460;28;20125;-58
2022/05/02 07:57:38;;;;;;;2.15;1.00;;;;;;;;;;5012412;28;20030;-58
2022/05/02 08:00:07;;;;;;;2.15;1.25;;;;;;;;;;5012487;28;20045;-58
2022/05/02 08:02:35;;;;;;;2.60;1.33;;;;;;;;;;5012220;28;20410;-58
2022/05/02 08:05:04;;;;;;;3.20;1.23;;;;;;;;;;5012359;28;20574;-59
2022/05/02 08:07:37;;;;;;;2.35;1.33;;;;;;;;;;5012223;28;20543;-58
2022/05/02 08:10:14;;;;;;;2.10;1.25;;;;;;;;;;5012362;28;20105;-58
2022/05/02 08:12:53;;;;;;;2.15;1.05;;;;;;;;;;5012228;28;20022;-59
2022/05/02 08:15:25;;;;;;;2.13;1.40;;;;;;;;;;5012288;28;20057;-59
2022/05/02 08:18:01;;;;;;;2.10;1.10;;;;;;;;;;5015463;28;20029;-58
2022/05/02 08:20:37;;;;;;;3.55;1.63;;;;;;;;;;5015768;28;20100;-59
2022/05/02 08:28:58;;;;;;;2.50;1.10;;;;;;;;;;5016028;28;20100;-58
2022/05/02 08:31:39;;;;;;;1.73;1.30;;;;;;;;;;5015440;28;20388;-59
2022/05/02 08:34:16;;;;;;;2.17;1.40;;;;;;;;;;5015702;28;20044;-60
2022/05/02 08:36:50;;;;;;;1.55;1.08;;;;;;;;;;5015559;28;20030;-58
2022/05/02 08:39:19;;;;;;;2.15;1.27;;;;;;;;;;5015588;28;20088;-58
2022/05/02 08:41:49;;;;;;;1.30;0.95;;;;;;;;;;4997808;28;20137;-58
2022/05/02 08:44:16;;;;;;;5.95;1.50;;;;;;;;;;4997744;28;20424;-57
2022/05/02 08:46:56;;;;;;;2.67;1.50;;;;;;;;;;5015316;28;20572;-58
2022/05/02 08:49:41;;;;;;;3.28;1.50;;;;;;;;;;5015288;28;20022;-59
2022/05/02 08:52:11;;;;;;;1.08;0.98;;;;;;;;;;5015178;28;20458;-59
2022/05/02 08:55:07;;;;;;;2.15;1.30;;;;;;;;;;5015243;28;20503;-59
2022/05/02 08:57:44;;;;;;;2.63;1.10;;;;;;;;;;4994707;28;20042;-59
2022/05/02 09:00:29;;;;;;;2.05;1.23;;;;;;;;;;5015137;28;20021;-59
2022/05/02 09:03:14;;;;;;;2.65;1.15;;;;;;;;;;5014986;28;20026;-59
2022/05/02 09:05:52;;;;;;;1.80;1.30;;;;;;;;;;5014831;28;20487;-59
2022/05/02 09:08:37;;;;;;;1.75;1.30;;;;;;;;;;5015076;28;20113;-58
2022/05/02 09:11:31;;;;;;;1.85;1.10;;;;;;;;;;5014864;28;20040;-59
2022/05/02 09:14:16;;;;;;;2.75;1.33;;;;;;;;;;5014724;28;20030;-59
2022/05/02 09:16:43;;;;;;;2.42;1.40;;;;;;;;;;5014797;28;20021;-58
2022/05/02 09:19:22;;;;;;;2.25;1.15;;;;;;;;;;5014931;28;20553;-59
2022/05/02 09:21:55;;;;;;;1.70;1.13;;;;;;;;;;5014575;28;20142;-59
2022/05/02 09:24:25;;;;;;;1.98;1.33;;;;;;;;;;5014537;28;20404;-58
2022/05/02 09:26:57;;;;;;;2.72;1.20;;;;;;;;;;5014619;28;20030;-58
2022/05/02 09:29:37;;;;;;;1.90;1.10;;;;;;;;;;5013661;28;20100;-59
2022/05/02 09:32:07;;;;;;;1.73;1.15;;;;;;;;;;5014307;28;20207;-59
2022/05/02 09:34:38;;;;;;;1.88;0.90;;;;;;;;;;5014812;28;20525;-59
2022/05/02 09:37:06;;;;;;;1.38;0.95;;;;;;;;;;5014518;28;20048;-59
2022/05/02 09:39:46;;;;;;;1.52;0.95;;;;;;;;;;5014470;28;20037;-59
2022/05/02 09:42:26;;;;;;;1.80;1.17;;;;;;;;;;4996556;28;20030;-58
2022/05/02 09:50:59;;;;;;;2.22;0.93;;;;;;;;;;5014371;28;20537;-59
2022/05/02 09:53:52;;;;;;;2.40;1.15;;;;;;;;;;5014109;28;20109;-57
2022/05/02 09:59:08;;;;;;;3.47;1.17;;;;;;;;;;5014104;28;19992;-58
2022/05/02 10:01:35;;;;;;;1.50;1.02;;;;;;;;;;5013942;28;20037;-59
2022/05/02 10:04:18;;;;;;;2.97;1.40;;;;;;;;;;5013909;28;20022;-58
2022/05/02 10:06:44;;;;;;;;;;;;;;;;;;5014538;28;20053;-59
2022/05/02 10:09:24;;;;;;;2.92;1.00;;;;;;;;;;4996218;28;19941;-59
2022/05/02 10:11:57;;;;;;;4.78;0.98;;;;;;;;;;5013778;28;20033;-58
2022/05/02 10:14:24;;;;;;;4.75;1.55;;;;;;;;;;5013642;28;20061;-57
2022/05/02 10:16:51;;;;;;;2.15;1.20;;;;;;;;;;5013730;28;20080;-59
2022/05/02 10:19:30;;;;;;;3.30;1.17;;;;;;;;;;5013677;28;20450;-56
2022/05/02 10:22:00;;;;;;;2.75;1.02;;;;;;;;;;5013558;28;20026;-59
2022/05/02 10:24:30;;;;;;;2.22;0.98;;;;;;;;;;5013589;28;20053;-56
2022/05/02 10:27:05;;;;;;;2.58;1.20;;;;;;;;;;5013534;28;20034;-59
2022/05/02 10:29:42;;;;;;;1.98;1.10;;;;;;;;;;5013489;28;20030;-59
2022/05/02 10:32:27;;;;;;;4.82;1.00;;;;;;;;;;5013128;28;20057;-57
2022/05/02 10:34:56;;;;;;;5.03;1.30;;;;;;;;;;5013341;28;20038;-59
2022/05/02 10:37:26;;;;;;;1.88;1.23;;;;;;;;;;4995772;28;20030;-59
2022/05/02 10:39:59;;;;;;;2.83;1.20;;;;;;;;;;5013191;28;20028;-59
2022/05/02 10:42:30;;;;;;;4.78;1.35;;;;;;;;;;5007173;28;20022;-59
2022/05/02 10:45:06;;;;;;;4.00;1.00;;;;;;;;;;5012480;28;20033;-60
2022/05/02 10:47:59;;;;;;;2.95;1.00;;;;;;;;;;5012348;28;20392;-59
2022/05/02 10:50:37;;;;;;;5.15;1.20;;;;;;;;;;5009599;28;20511;-59
2022/05/02 10:53:10;;;;;;;4.85;0.90;;;;;;;;;;5012327;28;20034;-57
2022/05/02 10:55:40;;;;;;;4.93;1.05;;;;;;;;;;5011701;28;20030;-58
2022/05/02 10:58:10;;;;;;;6.38;1.35;;;;;;;;;;5024097;28;20444;-60
2022/05/02 11:00:56;;;;;;;3.67;1.13;;;;;;;;;;5030572;28;20450;-60
2022/05/02 11:03:31;;;;;;;5.15;1.00;;;;;;;;;;5014818;28;20399;-56
2022/05/02 11:06:10;;;;;;;4.28;0.93;;;;;;;;;;5031770;28;20392;-60
2022/05/02 11:08:37;;;;;;;5.20;0.90;;;;;;;;;;5032297;28;20056;-58
2022/05/02 11:11:06;;;;;;;6.72;1.20;;;;;;;;;;5031061;28;20025;-57
2022/05/02 11:13:46;;;;;;;11.80;1.40;;;;;;;;;;5031981;28;20494;-59
2022/05/02 11:16:16;;;;;;;11.05;1.20;;;;;;;;;;5032119;28;20026;-58
2022/05/02 11:21:56;;;;;;;4.60;1.00;;;;;;;;;;5030582;28;20119;-58
2022/05/02 11:24:29;;;;;;;9.25;1.20;;;;;;;;;;5014120;28;20042;-58
2022/05/02 11:27:14;;;;;;;4.75;0.90;;;;;;;;;;5031843;28;20041;-59
2022/05/02 11:29:57;;;;;;;2.67;1.10;;;;;;;;;;5014281;28;20033;-61
2022/05/02 11:33:02;;;;;;;6.60;1.00;;;;;;;;;;5030644;28;20056;-61
2022/05/02 11:35:31;;;;;;;4.70;1.40;;;;;;;;;;4932023;29;20032;-61
2022/05/02 11:38:04;;;;;;;6.30;1.40;;;;;;;;;;4932386;29;20035;-62
2022/05/02 11:40:36;;;;;;;4.25;1.48;;;;;;;;;;4985088;28;20125;-61
2022/05/02 11:43:04;;;;;;;10.30;1.38;;;;;;;;;;5030903;28;20037;-62
2022/05/02 11:45:42;;;;;;;6.78;1.63;;;;;;;;;;5031649;28;20041;-61
2022/05/02 11:48:09;;;;;;;8.15;1.58;;;;;;;;;;5031341;28;20040;-60
2022/05/02 11:50:43;;;;;;;5.88;1.80;;;;;;;;;;5031684;28;20048;-61
2022/05/02 11:53:13;;;;;;;5.53;1.45;;;;;;;;;;5034292;28;20522;-55
2022/05/02 11:55:40;;;;;;;10.02;2.08;;;;;;;;;;5035596;28;20109;-56
2022/05/02 11:58:30;;;;;;;6.88;1.58;;;;;;;;;;5035316;28;20043;-52
2022/05/02 12:01:08;;;;;;;10.60;1.75;;;;;;;;;;5023163;28;20041;-49
2022/05/02 12:03:44;;;;;;;9.85;2.47;;;;;;;;;;5034082;28;20088;-51
2022/05/02 12:06:14;;;;;;;10.40;2.08;;;;;;;;;;5017430;28;20136;-55
2022/05/02 12:08:48;;;;;;;7.20;1.77;;;;;;;;;;5035081;28;20041;-51
2022/05/02 12:11:16;;;;;;;8.60;1.90;;;;;;;;;;5034512;28;20465;-53
2022/05/02 12:13:47;;;;;;;7.00;1.75;;;;;;;;;;5034368;28;20105;-55
2022/05/02 12:16:20;;;;;;;4.20;1.48;;;;;;;;;;5034802;28;20079;-55
2022/05/02 12:18:49;;;;;;;11.60;2.35;;;;;;;;;;5035312;28;20025;-55
2022/05/02 12:21:15;;;;;;;5.38;1.70;;;;;;;;;;5034948;28;20057;-50
2022/05/02 12:23:43;;;;;;;10.38;1.90;;;;;;;;;;5035265;28;20069;-53
2022/05/02 12:26:18;;;;;;;10.57;2.10;;;;;;;;;;5033648;28;20516;-54
2022/05/02 12:28:51;;;;;;;10.55;2.17;;;;;;;;;;5034804;28;20072;-54
2022/05/02 12:31:20;;;;;;;13.52;2.42;;;;;;;;;;5034320;28;20029;-55
2022/05/02 12:33:56;;;;;;;8.93;1.90;;;;;;;;;;5017195;28;20402;-55
2022/05/02 12:36:25;;;;;;;11.07;2.22;;;;;;;;;;5015490;28;20029;-54
2022/05/02 12:39:06;;;;;;;8.15;2.50;;;;;;;;;;5034818;28;20491;-55
2022/05/02 12:41:53;;;;;;;6.05;1.98;;;;;;;;;;5034539;28;20143;-52
2022/05/02 12:44:24;;;;;;;9.18;2.63;;;;;;;;;;5034519;28;20042;-52
2022/05/02 12:46:53;;;;;;;7.15;2.17;;;;;;;;;;5033824;28;20099;-54
2022/05/02 12:49:28;;;;;;;9.70;2.25;;;;;;;;;;5034402;28;20068;-50
2022/05/02 12:51:56;;;;;;;13.27;2.45;;;;;;;;;;5034015;28;20499;-54
2022/05/02 12:54:25;;;;;;;10.50;2.53;;;;;;;;;;5034370;28;20108;-54
2022/05/02 13:02:52;;;;;;;14.95;2.40;;;;;;;;;;5034526;28;20052;-54
2022/05/02 13:05:20;;;;;;;11.15;2.10;;;;;;;;;;5034312;28;20029;-52
2022/05/02 13:07:48;;;;;;;5.55;1.70;;;;;;;;;;5031677;28;20029;-54
2022/05/02 13:10:17;;;;;;;12.80;2.53;;;;;;;;;;5015199;28;20154;-53
2022/05/02 13:13:05;;;;;;;12.93;2.33;;;;;;;;;;5033663;28;20056;-54
2022/05/02 13:15:33;;;;;;;8.73;1.90;;;;;;;;;;5033634;28;20052;-53
2022/05/02 13:18:04;;;;;;;12.68;2.40;;;;;;;;;;5032222;28;20041;-52
2022/05/02 13:20:32;;;;;;;8.15;2.00;;;;;;;;;;5033190;28;20053;-53
2022/05/02 13:23:00;;;;;;;6.57;1.65;;;;;;;;;;5033416;28;20022;-53
2022/05/02 13:25:45;;;;;;;20.88;2.35;;;;;;;;;;5033258;28;20043;-54
2022/05/02 13:28:16;;;;;;;7.22;2.35;;;;;;;;;;5015653;28;20029;-55
2022/05/02 13:30:51;;;;;;;8.02;2.35;;;;;;;;;;5031458;28;20455;-54
2022/05/02 13:33:20;;;;;;;8.50;1.95;;;;;;;;;;5032379;28;20053;-53
2022/05/02 13:35:47;;;;;;;10.88;2.30;;;;;;;;;;5032472;28;20046;-54
2022/05/02 13:38:19;;;;;;;6.65;2.10;;;;;;;;;;5032588;28;20636;-56
2022/05/02 13:41:05;;;;;;;10.90;2.25;;;;;;;;;;5031803;28;20049;-50
2022/05/02 13:43:34;;;;;;;9.88;2.42;;;;;;;;;;5032953;28;20072;-53
2022/05/02 13:46:01;;;;;;;12.30;2.25;;;;;;;;;;5032758;28;20087;-51
2022/05/02 13:48:31;;;;;;;8.98;2.60;;;;;;;;;;5032471;28;20064;-54
2022/05/02 13:51:11;;;;;;;10.75;2.20;;;;;;;;;;5031330;28;20072;-50
2022/05/02 13:53:42;;;;;;;10.13;2.40;;;;;;;;;;5015230;28;20048;-54
2022/05/02 13:56:43;;;;;;;8.30;2.10;;;;;;;;;;5032634;28;20025;-54
2022/05/02 13:59:19;;;;;;;10.05;2.50;;;;;;;;;;4979966;28;20042;-55
2022/05/02 14:02:01;;;;;;;13.77;2.42;;;;;;;;;;5031619;28;20069;-51
2022/05/02 14:07:14;;;;;;;14.05;2.33;;;;;;;;;;5032578;28;20056;-55
2022/05/02 14:09:47;;;;;;;13.68;2.17;;;;;;;;;;5031279;28;20970;-52
2022/05/02 14:12:20;;;;;;;11.80;2.42;;;;;;;;;;5031268;28;20032;-49
2022/05/02 14:15:16;;;;;;;10.02;2.17;;;;;;;;;;5032118;28;20021;-52
2022/05/02 14:17:47;;;;;;;10.57;2.33;;;;;;;;;;5030449;28;20091;-55
2022/05/02 14:20:14;;;;;;;11.43;2.37;;;;;;;;;;5032097;28;20041;-53
2022/05/02 14:22:42;;;;;;;10.90;2.22;;;;;;;;;;5013117;28;20206;-53
2022/05/02 14:25:14;;;;;;;9.95;2.10;;;;;;;;;;5031249;28;20120;-51
2022/05/02 14:27:41;;;;;;;8.63;2.28;;;;;;;;;;5029126;28;20038;-53
2022/05/02 14:30:08;;;;;;;8.65;2.13;;;;;;;;;;5032117;28;20025;-56
2022/05/02 14:32:43;;;;;;;8.88;2.03;;;;;;;;;;5030569;28;20045;-54
2022/05/02 14:35:12;;;;;;;9.82;2.10;;;;;;;;;;5018049;28;20136;-52
2022/05/02 14:37:42;;;;;;;11.57;2.20;;;;;;;;;;5017560;28;20134;-51
2022/05/02 14:40:09;;;;;;;17.83;2.35;;;;;;;;;;5015101;28;20057;-50
2022/05/02 14:42:36;;;;;;;8.88;2.03;;;;;;;;;;5012139;28;20026;-52
2022/05/02 14:45:04;;;;;;;9.07;2.20;;;;;;;;;;5011290;28;20026;-49
2022/05/02 14:47:33;;;;;;;9.23;2.03;;;;;;;;;;5011240;28;20042;-56
2022/05/02 14:50:00;;;;;;;12.80;2.10;;;;;;;;;;5012005;28;20088;-55
2022/05/02 14:52:29;;;;;;;14.00;2.65;;;;;;;;;;5012189;28;20057;-47
2022/05/02 14:54:58;;;;;;;8.18;1.90;;;;;;;;;;5010873;28;20036;-48
2022/05/02 14:57:26;;;;;;;12.32;2.17;;;;;;;;;;5011319;28;20029;-49
2022/05/02 14:59:57;;;;;;;11.07;1.98;;;;;;;;;;5011944;28;20061;-53
2022/05/02 15:02:26;;;;;;;8.15;1.70;;;;;;;;;;5011512;28;20057;-49
2022/05/02 15:05:00;;;;;;;9.05;1.83;;;;;;;;;;5011488;28;20381;-51
2022/05/02 15:07:31;;;;;;;5.47;1.52;;;;;;;;;;5010310;28;20121;-46
2022/05/02 15:10:12;;;;;;;5.32;1.75;;;;;;;;;;5011362;28;20096;-47
2022/05/02 15:12:57;;;;;;;10.43;1.80;;;;;;;;;;5011355;28;20067;-49
2022/05/02 15:15:34;;;;;;;9.20;2.30;;;;;;;;;;5011338;28;20480;-46
2022/05/02 15:18:17;;;;;;;13.07;2.33;;;;;;;;;;5010381;28;20042;-47
2022/05/02 15:20:48;;;;;;;9.93;2.30;;;;;;;;;;5011420;28;20041;-47
2022/05/02 15:23:15;;;;;;;10.90;2.58;;;;;;;;;;5012456;28;20034;-51
2022/05/02 15:25:51;;;;;;;24.00;3.28;;;;;;;;;;5019175;28;20637;-47
2022/05/02 15:36:50;;;;;;;18.42;3.03;;;;;;;;;;5034859;28;20052;-54
2022/05/02 15:39:26;;;;;;;15.85;2.78;;;;;;;;;;5033659;28;20037;-53
2022/05/02 15:41:55;;;;;;;18.15;3.97;;;;;;;;;;5017487;28;20403;-54
2022/05/02 15:44:22;;;;;;;19.05;4.72;;;;;;;;;;5034368;28;20053;-51